Time;durP1;ratioP1;P1;durP2;ratioP2;P2;SDS_P1;SDS_P2;PMS_P1;PMS_P2;Temp;Humidity;BMP_temperature;BMP_pressure;BME280_temperature;BME280_humidity;BME280_pressure;Samples;Min_cycle;Max_cycle;Signal;HPM_P1;HPM_P2
2022/04/10 00:00:19;;;;;;;7.50;2.65;;;3.60;99.90;;;;;;5075257;28;20032;-84
2022/04/10 00:02:44;;;;;;;12.68;3.13;;;3.60;99.90;;;;;;5075085;28;20095;-83
2022/04/10 00:05:21;;;;;;;16.88;3.35;;;3.60;99.90;;;;;;5075091;28;20029;-84
2022/04/10 00:07:46;;;;;;;9.43;2.33;;;3.60;99.90;;;;;;5074940;28;20035;-83
2022/04/10 00:10:13;;;;;;;10.95;2.13;;;3.60;99.90;;;;;;5075287;28;20453;-84
2022/04/10 00:12:39;;;;;;;10.68;2.22;;;3.60;99.90;;;;;;5074721;28;20024;-83
2022/04/10 00:15:05;;;;;;;12.32;2.35;;;3.60;99.90;;;;;;5074942;28;20052;-83
2022/04/10 00:17:45;;;;;;;12.38;2.75;;;3.60;99.90;;;;;;5056851;28;20020;-83
2022/04/10 00:20:29;;;;;;;11.52;2.78;;;3.60;99.90;;;;;;5074844;28;20044;-83
2022/04/10 00:22:55;;;;;;;9.73;3.20;;;3.60;99.90;;;;;;5056709;28;20028;-83
2022/04/10 00:25:21;;;;;;;6.40;2.30;;;3.60;99.90;;;;;;5074917;28;20444;-83
2022/04/10 00:27:58;;;;;;;5.50;2.45;;;3.60;99.90;;;;;;5074444;28;20034;-84
2022/04/10 00:30:24;;;;;;;11.13;2.42;;;3.60;99.90;;;;;;5074644;28;20086;-83
2022/04/10 00:32:49;;;;;;;7.57;2.35;;;3.50;99.90;;;;;;5074708;28;20020;-83
2022/04/10 00:35:18;;;;;;;12.55;2.42;;;3.60;99.90;;;;;;5056855;28;20074;-83
2022/04/10 00:37:44;;;;;;;7.13;3.30;;;3.50;99.90;;;;;;5074230;28;20031;-83
2022/04/10 00:40:09;;;;;;;6.22;2.58;;;3.60;99.90;;;;;;5055709;28;20107;-84
2022/04/10 00:42:41;;;;;;;6.82;2.88;;;3.60;99.90;;;;;;5055772;28;20125;-83
2022/04/10 00:45:08;;;;;;;13.13;3.05;;;3.50;99.90;;;;;;5036512;28;20025;-83
2022/04/10 00:47:34;;;;;;;18.10;3.33;;;3.60;99.90;;;;;;5054352;28;20052;-84
2022/04/10 00:50:18;;;;;;;9.75;2.70;;;3.70;99.90;;;;;;5054338;28;20068;-83
2022/04/10 00:52:47;;;;;;;13.25;2.78;;;3.60;99.90;;;;;;5073760;28;20086;-84
2022/04/10 00:55:24;;;;;;;9.50;3.08;;;3.60;99.90;;;;;;5074350;28;20357;-83
2022/04/10 00:57:50;;;;;;;9.43;2.80;;;3.60;99.90;;;;;;5073860;28;20353;-84
2022/04/10 01:00:32;;;;;;;9.30;2.47;;;3.60;99.90;;;;;;5074156;28;20082;-84
2022/04/10 01:02:58;;;;;;;10.18;2.78;;;3.60;99.90;;;;;;5073495;28;20395;-84
2022/04/10 01:05:23;;;;;;;8.10;3.00;;;3.50;99.90;;;;;;5074015;28;20104;-85
2022/04/10 01:07:50;;;;;;;11.77;3.10;;;3.60;99.90;;;;;;5055963;28;20028;-84
2022/04/10 01:10:15;;;;;;;7.32;2.80;;;3.60;99.90;;;;;;5073695;28;20028;-84
2022/04/10 01:12:41;;;;;;;14.32;2.83;;;3.60;99.90;;;;;;5073034;28;20025;-83
2022/04/10 01:15:18;;;;;;;20.15;3.00;;;3.60;99.90;;;;;;5055847;28;20567;-85
2022/04/10 01:17:44;;;;;;;11.38;2.80;;;3.60;99.90;;;;;;5073383;28;20052;-84
2022/04/10 01:20:35;;;;;;;10.38;3.83;;;3.60;99.90;;;;;;5050144;28;20076;-84
2022/04/10 01:23:02;;;;;;;19.35;3.22;;;3.70;99.90;;;;;;5033532;28;20033;-83
2022/04/10 01:25:28;;;;;;;8.88;3.17;;;3.50;99.90;;;;;;5045770;28;20017;-85
2022/04/10 01:28:01;;;;;;;17.65;4.30;;;3.50;99.90;;;;;;5052025;28;20017;-83
2022/04/10 01:30:28;;;;;;;15.13;3.67;;;3.50;99.90;;;;;;5053540;28;20111;-84
2022/04/10 01:33:09;;;;;;;13.02;3.50;;;3.50;99.90;;;;;;5053509;28;20025;-85
2022/04/10 01:35:35;;;;;;;14.77;3.33;;;3.50;99.90;;;;;;5053248;28;20025;-85
2022/04/10 01:38:02;;;;;;;8.13;3.10;;;3.50;99.90;;;;;;5052060;28;20017;-83
2022/04/10 01:40:35;;;;;;;18.42;3.42;;;3.50;99.90;;;;;;5053199;28;20090;-84
2022/04/10 01:43:02;;;;;;;7.07;2.38;;;3.50;99.90;;;;;;5051933;28;20060;-84
2022/04/10 01:45:27;;;;;;;14.68;3.55;;;3.50;99.90;;;;;;5053426;28;20025;-85
2022/04/10 01:47:58;;;;;;;13.63;2.90;;;3.60;99.90;;;;;;5051880;28;20032;-83
2022/04/10 01:50:24;;;;;;;10.68;2.78;;;3.60;99.90;;;;;;5052846;28;20029;-84
2022/04/10 01:53:05;;;;;;;15.73;3.92;;;3.60;99.90;;;;;;5053034;28;20457;-84
2022/04/10 01:55:31;;;;;;;12.25;3.25;;;3.60;99.90;;;;;;5051903;28;20017;-84
2022/04/10 01:57:56;;;;;;;15.52;3.85;;;3.60;99.90;;;;;;5052799;28;20574;-84
2022/04/10 02:00:35;;;;;;;22.13;3.67;;;3.60;99.90;;;;;;5052980;28;20029;-85
2022/04/10 02:03:00;;;;;;;15.75;3.72;;;3.60;99.90;;;;;;5052647;28;20029;-84
2022/04/10 02:05:34;;;;;;;16.08;3.60;;;3.60;99.90;;;;;;5051365;28;20035;-83
2022/04/10 02:08:01;;;;;;;14.52;3.92;;;3.60;99.90;;;;;;5052627;28;20029;-84
2022/04/10 02:10:26;;;;;;;10.35;3.20;;;3.60;99.90;;;;;;5052346;28;20104;-84
2022/04/10 02:12:52;;;;;;;20.60;3.40;;;3.50;99.90;;;;;;5051356;28;20421;-84
2022/04/10 02:15:38;;;;;;;9.25;3.58;;;3.50;99.90;;;;;;5051770;28;20021;-85
2022/04/10 02:18:05;;;;;;;17.95;4.35;;;3.60;99.90;;;;;;5051388;28;20079;-84
2022/04/10 02:20:30;;;;;;;12.23;3.40;;;3.60;99.90;;;;;;5052583;28;20483;-83
2022/04/10 02:22:56;;;;;;;12.00;3.35;;;3.60;99.90;;;;;;5054659;28;20060;-84
2022/04/10 02:25:22;;;;;;;13.05;2.60;;;3.60;99.90;;;;;;5073038;28;20037;-84
2022/04/10 02:28:06;;;;;;;7.78;2.80;;;3.60;99.90;;;;;;5054661;28;20028;-84
2022/04/10 02:30:31;;;;;;;13.15;2.90;;;3.60;99.90;;;;;;5054730;28;20115;-84
2022/04/10 02:32:58;;;;;;;13.90;2.80;;;3.70;99.90;;;;;;5072479;28;20049;-84
2022/04/10 02:35:23;;;;;;;12.60;2.70;;;3.60;99.90;;;;;;5072411;28;20097;-84
2022/04/10 02:37:49;;;;;;;12.90;3.80;;;3.60;99.90;;;;;;5072401;28;20095;-83
2022/04/10 02:40:18;;;;;;;10.60;2.33;;;3.60;99.90;;;;;;5054449;28;20029;-84
2022/04/10 02:42:44;;;;;;;17.88;2.42;;;3.60;99.90;;;;;;5071775;28;20491;-84
2022/04/10 02:45:10;;;;;;;5.47;2.35;;;3.60;99.90;;;;;;5072503;28;20028;-82
2022/04/10 02:47:45;;;;;;;12.85;3.05;;;3.60;99.90;;;;;;5072602;28;20028;-83
2022/04/10 02:50:12;;;;;;;9.45;2.35;;;3.50;99.90;;;;;;5072418;28;20028;-83
2022/04/10 02:52:38;;;;;;;8.93;2.28;;;3.50;99.90;;;;;;5072446;28;20021;-83
2022/04/10 02:55:04;;;;;;;6.32;2.42;;;3.50;99.90;;;;;;5072390;28;20044;-83
2022/04/10 02:57:30;;;;;;;10.38;2.58;;;3.50;99.90;;;;;;5072246;28;20020;-83
2022/04/10 02:59:56;;;;;;;7.38;2.75;;;3.50;99.90;;;;;;5054141;28;20055;-84
2022/04/10 03:02:40;;;;;;;11.00;2.17;;;3.50;99.90;;;;;;5055627;28;20437;-83
2022/04/10 03:05:09;;;;;;;14.45;2.95;;;3.50;99.90;;;;;;5076339;28;20092;-83
2022/04/10 03:07:35;;;;;;;13.60;2.53;;;3.60;99.90;;;;;;5076238;28;20428;-83
2022/04/10 03:10:02;;;;;;;18.92;2.78;;;3.50;99.90;;;;;;5075965;28;20107;-82
2022/04/10 03:12:27;;;;;;;7.97;2.58;;;3.60;99.90;;;;;;5075981;28;20354;-83
2022/04/10 03:14:53;;;;;;;17.38;3.08;;;3.50;99.90;;;;;;5076278;28;20035;-83
2022/04/10 03:17:19;;;;;;;14.45;2.67;;;3.50;99.90;;;;;;5058211;28;20046;-83
2022/04/10 03:19:58;;;;;;;8.05;2.40;;;3.50;99.90;;;;;;5057918;28;20028;-84
2022/04/10 03:22:30;;;;;;;12.95;2.45;;;3.50;99.90;;;;;;5075548;28;20056;-83
2022/04/10 03:24:56;;;;;;;6.57;2.15;;;3.50;99.90;;;;;;5075843;28;20032;-82
2022/04/10 03:27:21;;;;;;;8.80;2.55;;;3.50;99.90;;;;;;5075295;28;20114;-84
2022/04/10 03:29:50;;;;;;;13.55;2.35;;;3.50;99.90;;;;;;5057826;28;20115;-83
2022/04/10 03:32:15;;;;;;;6.53;2.30;;;3.50;99.90;;;;;;5075420;28;20483;-83
2022/04/10 03:34:45;;;;;;;12.07;2.58;;;3.50;99.90;;;;;;5075365;28;20021;-85
2022/04/10 03:37:11;;;;;;;13.05;3.00;;;3.50;99.90;;;;;;5057743;28;20062;-83
2022/04/10 03:39:36;;;;;;;14.77;2.70;;;3.40;99.90;;;;;;5075570;28;20020;-84
2022/04/10 03:42:05;;;;;;;12.85;2.85;;;3.40;99.90;;;;;;5075185;28;20085;-83
2022/04/10 03:44:31;;;;;;;16.63;3.85;;;3.40;99.90;;;;;;5075212;28;20043;-83
2022/04/10 03:46:58;;;;;;;13.15;2.50;;;3.40;99.90;;;;;;5055522;28;20033;-83
2022/04/10 03:49:23;;;;;;;10.57;2.50;;;3.40;99.90;;;;;;5075344;28;20036;-83
2022/04/10 03:51:49;;;;;;;12.80;2.70;;;3.40;99.90;;;;;;5075136;28;20039;-83
2022/04/10 03:54:15;;;;;;;15.73;2.83;;;3.40;99.90;;;;;;5075382;28;20024;-83
2022/04/10 03:56:41;;;;;;;11.50;2.42;;;3.40;99.90;;;;;;5074874;28;20028;-83
2022/04/10 03:59:06;;;;;;;9.95;2.45;;;3.30;99.90;;;;;;5075342;28;20527;-83
2022/04/10 04:01:38;;;;;;;15.55;4.75;;;3.30;99.90;;;;;;5075240;28;20471;-83
2022/04/10 04:04:04;;;;;;;21.63;3.17;;;3.30;99.90;;;;;;5074946;28;20039;-84
2022/04/10 04:06:29;;;;;;;11.32;3.08;;;3.30;99.90;;;;;;5075142;28;20021;-84
2022/04/10 04:09:07;;;;;;;9.93;3.08;;;3.30;99.90;;;;;;5057480;28;20498;-82
2022/04/10 04:11:33;;;;;;;14.50;3.10;;;3.20;99.90;;;;;;5056762;28;20078;-82
2022/04/10 04:14:05;;;;;;;14.65;3.03;;;3.30;99.90;;;;;;5073493;28;20468;-82
2022/04/10 04:16:30;;;;;;;13.55;2.75;;;3.20;99.90;;;;;;5074746;28;20024;-82
2022/04/10 04:19:08;;;;;;;12.65;2.97;;;3.20;99.90;;;;;;5075096;28;20086;-83
2022/04/10 04:21:38;;;;;;;10.52;2.60;;;3.20;99.90;;;;;;5056836;28;20067;-83
2022/04/10 04:24:04;;;;;;;15.32;4.57;;;3.30;99.90;;;;;;5056983;28;20020;-83
2022/04/10 04:26:36;;;;;;;10.48;2.67;;;3.30;99.90;;;;;;5056347;28;20070;-83
2022/04/10 04:29:02;;;;;;;12.50;2.83;;;3.30;99.90;;;;;;5056911;28;20466;-83
2022/04/10 04:31:27;;;;;;;20.50;4.35;;;3.30;99.90;;;;;;5074521;28;20051;-83
2022/04/10 04:34:01;;;;;;;20.20;3.50;;;3.30;99.90;;;;;;5074459;28;20020;-83
2022/04/10 04:36:26;;;;;;;19.95;3.28;;;3.30;99.90;;;;;;5056585;28;20024;-83
2022/04/10 04:38:56;;;;;;;19.73;3.70;;;3.40;99.90;;;;;;5074465;28;20500;-83
2022/04/10 04:41:21;;;;;;;21.73;3.40;;;3.20;99.90;;;;;;5074101;28;20066;-82
2022/04/10 04:43:50;;;;;;;21.15;3.65;;;3.20;99.90;;;;;;5074521;28;20368;-83
2022/04/10 04:46:16;;;;;;;13.93;3.35;;;3.20;99.90;;;;;;5074573;28;20099;-83
2022/04/10 04:48:41;;;;;;;17.85;3.17;;;3.20;99.90;;;;;;5041609;28;21897;-83
2022/04/10 04:51:07;;;;;;;13.27;3.95;;;3.20;99.90;;;;;;5056582;28;20048;-83
2022/04/10 04:53:33;;;;;;;13.50;3.25;;;3.20;99.90;;;;;;5073712;28;20027;-82
2022/04/10 04:55:59;;;;;;;14.63;3.00;;;3.20;99.90;;;;;;5073419;28;20042;-82
2022/04/10 04:58:33;;;;;;;17.23;3.08;;;3.20;99.90;;;;;;5074201;28;20429;-84
2022/04/10 05:00:58;;;;;;;14.25;3.10;;;3.20;99.90;;;;;;5074214;28;20024;-83
2022/04/10 05:03:31;;;;;;;15.70;3.58;;;3.20;99.90;;;;;;5056206;28;20026;-82
2022/04/10 05:05:56;;;;;;;16.23;3.10;;;3.20;99.90;;;;;;5056109;28;20381;-82
2022/04/10 05:08:22;;;;;;;21.77;5.80;;;3.20;99.90;;;;;;5074095;28;20043;-82
2022/04/10 05:10:47;;;;;;;14.27;2.97;;;3.30;99.90;;;;;;5073599;28;20025;-82
2022/04/10 05:13:13;;;;;;;23.27;3.47;;;3.20;99.90;;;;;;5073542;28;20480;-83
2022/04/10 05:15:39;;;;;;;19.13;3.53;;;3.30;99.90;;;;;;5073311;28;20082;-83
2022/04/10 05:18:04;;;;;;;21.40;3.25;;;3.30;99.90;;;;;;5056288;28;20346;-82
2022/04/10 05:20:30;;;;;;;15.25;3.13;;;3.30;99.90;;;;;;5073619;28;20503;-82
2022/04/10 05:22:56;;;;;;;23.83;4.35;;;3.40;99.90;;;;;;5073482;28;20033;-83
2022/04/10 05:25:22;;;;;;;13.43;3.35;;;3.40;99.90;;;;;;5073323;28;20090;-82
2022/04/10 05:27:50;;;;;;;13.10;3.38;;;3.40;99.90;;;;;;5055488;28;20036;-83
2022/04/10 05:30:29;;;;;;;18.63;3.60;;;3.40;99.90;;;;;;5073458;28;20021;-92
2022/04/10 05:32:54;;;;;;;9.18;2.85;;;3.50;99.90;;;;;;5056050;28;20021;-90
2022/04/10 05:35:21;;;;;;;21.55;3.50;;;3.40;99.90;;;;;;5055475;28;20040;-90
2022/04/10 05:37:46;;;;;;;12.60;3.40;;;3.40;99.90;;;;;;5073484;28;20024;-91
2022/04/10 05:40:12;;;;;;;19.92;4.03;;;3.40;99.90;;;;;;5055736;28;20021;-92
2022/04/10 05:42:50;;;;;;;15.05;3.10;;;3.40;99.90;;;;;;5055887;28;20412;-92
2022/04/10 05:45:16;;;;;;;29.08;4.05;;;3.40;99.90;;;;;;5074229;28;20024;-92
2022/04/10 05:47:43;;;;;;;13.10;3.17;;;3.50;99.90;;;;;;5055696;28;20025;-90
2022/04/10 05:50:30;;;;;;;20.00;3.17;;;3.60;99.90;;;;;;5055618;28;20020;-91
2022/04/10 05:52:56;;;;;;;10.30;3.50;;;3.60;99.90;;;;;;5073407;28;20070;-90
2022/04/10 05:55:51;;;;;;;25.90;3.30;;;3.70;99.90;;;;;;5073275;28;20025;-91
2022/04/10 05:58:17;;;;;;;10.65;2.85;;;3.70;99.90;;;;;;5068852;28;20063;-91
2022/04/10 06:00:56;;;;;;;25.48;4.50;;;3.80;99.90;;;;;;5074154;28;20044;-89
2022/04/10 06:03:21;;;;;;;13.80;3.25;;;3.80;99.90;;;;;;5056254;28;20063;-91
2022/04/10 06:05:50;;;;;;;19.50;4.60;;;3.80;99.90;;;;;;5055576;28;20056;-92
2022/04/10 06:08:15;;;;;;;18.88;3.72;;;3.90;99.90;;;;;;5055752;28;20032;-91
2022/04/10 06:10:45;;;;;;;10.77;3.25;;;4.00;99.90;;;;;;5072813;28;20029;-90
2022/04/10 06:13:11;;;;;;;14.70;3.75;;;4.10;99.90;;;;;;5055467;28;20028;-92
2022/04/10 06:15:58;;;;;;;10.10;3.28;;;4.10;99.90;;;;;;5055226;28;20036;-92
2022/04/10 06:18:24;;;;;;;16.80;3.95;;;4.10;99.90;;;;;;5055441;28;20035;-91
2022/04/10 06:20:49;;;;;;;24.40;3.25;;;4.10;99.90;;;;;;5052252;28;20048;-91
2022/04/10 06:23:23;;;;;;;16.38;3.10;;;4.10;99.90;;;;;;5053148;28;20464;-93
2022/04/10 06:25:49;;;;;;;14.75;3.20;;;4.10;99.90;;;;;;5052222;28;20020;-90
2022/04/10 06:28:16;;;;;;;18.42;3.85;;;4.10;99.90;;;;;;5051938;28;20040;-91
2022/04/10 06:30:43;;;;;;;23.27;3.58;;;4.10;99.90;;;;;;5052912;28;20021;-91
2022/04/10 06:33:09;;;;;;;20.90;3.58;;;4.10;99.90;;;;;;5053110;28;20028;-92
2022/04/10 06:35:34;;;;;;;26.85;4.00;;;4.20;99.90;;;;;;5051995;28;20025;-92
2022/04/10 06:38:03;;;;;;;16.45;3.20;;;4.10;99.90;;;;;;5051267;28;20035;-92
2022/04/10 06:40:28;;;;;;;24.45;3.60;;;4.10;99.90;;;;;;5053204;28;20036;-89
2022/04/10 06:43:06;;;;;;;14.77;3.13;;;4.00;99.90;;;;;;5051532;28;20477;-91
2022/04/10 06:45:32;;;;;;;18.23;3.40;;;4.00;99.90;;;;;;5051669;28;20048;-92
2022/04/10 06:47:59;;;;;;;15.85;3.33;;;4.10;99.90;;;;;;5051477;28;20096;-89
2022/04/10 06:50:24;;;;;;;17.00;3.55;;;4.10;99.90;;;;;;5051441;28;20063;-91
2022/04/10 06:52:58;;;;;;;26.25;4.40;;;4.10;99.90;;;;;;5049096;28;20029;-90
2022/04/10 06:55:24;;;;;;;21.48;3.50;;;4.20;99.90;;;;;;5041769;28;20026;-91
2022/04/10 06:58:25;;;;;;;11.00;2.92;;;4.30;99.90;;;;;;5048138;28;20032;-91
2022/04/10 07:00:50;;;;;;;25.13;4.80;;;4.40;99.90;;;;;;5032969;28;20076;-91
2022/04/10 07:03:19;;;;;;;26.23;3.45;;;4.40;99.90;;;;;;5031357;28;20631;-92
2022/04/10 07:05:44;;;;;;;18.13;3.47;;;4.40;99.90;;;;;;5050548;28;20032;-91
2022/04/10 07:08:37;;;;;;;13.10;3.38;;;4.50;99.90;;;;;;5051239;28;20466;-91
2022/04/10 07:11:02;;;;;;;16.98;3.63;;;4.50;99.90;;;;;;5052276;28;20040;-91
2022/04/10 07:14:14;;;;;;;27.20;5.78;;;4.50;99.90;;;;;;5052675;28;20100;-93
2022/04/10 07:16:40;;;;;;;27.80;3.42;;;4.70;99.90;;;;;;5068571;28;20112;-92
2022/04/10 07:19:06;;;;;;;24.42;4.75;;;4.70;99.90;;;;;;5052463;28;20147;-89
2022/04/10 07:24:22;;;;;;;32.03;4.47;;;4.80;99.90;;;;;;5073230;28;20031;-91
2022/04/10 07:26:52;;;;;;;19.13;4.13;;;4.90;99.90;;;;;;5054911;28;20025;-91
2022/04/10 07:29:17;;;;;;;24.65;3.75;;;4.90;99.90;;;;;;5054829;28;20021;-92
2022/04/10 07:31:46;;;;;;;18.25;4.03;;;4.90;99.90;;;;;;5034408;28;20028;-85
2022/04/10 07:34:12;;;;;;;19.23;4.18;;;4.90;99.90;;;;;;5052731;28;20032;-89
2022/04/10 07:36:40;;;;;;;20.92;3.47;;;5.00;99.90;;;;;;5072022;28;20016;-90
2022/04/10 07:39:06;;;;;;;23.77;4.55;;;5.00;99.90;;;;;;5053396;28;20016;-89
2022/04/10 07:41:33;;;;;;;17.63;3.22;;;5.00;99.90;;;;;;5071506;28;20025;-89
2022/04/10 07:43:59;;;;;;;19.77;3.63;;;5.00;99.90;;;;;;5071522;28;20036;-88
2022/04/10 07:49:10;;;;;;;18.27;3.15;;;5.20;99.90;;;;;;5056721;28;20445;-89
2022/04/10 07:51:36;;;;;;;13.15;2.88;;;5.20;99.90;;;;;;5070482;28;20060;-87
2022/04/10 07:54:02;;;;;;;20.10;3.42;;;5.20;99.90;;;;;;5075183;28;20426;-90
2022/04/10 07:56:28;;;;;;;22.27;5.20;;;5.20;99.90;;;;;;5074732;28;20104;-90
2022/04/10 07:58:53;;;;;;;19.20;4.10;;;5.20;99.90;;;;;;5075039;28;20391;-89
2022/04/10 08:01:25;;;;;;;23.38;3.72;;;5.20;99.90;;;;;;5075206;28;20028;-90
2022/04/10 08:03:52;;;;;;;20.98;3.75;;;5.20;99.90;;;;;;5057007;28;20082;-87
2022/04/10 08:06:19;;;;;;;21.33;4.20;;;5.20;99.90;;;;;;5057184;28;20036;-87
2022/04/10 08:08:45;;;;;;;21.17;3.72;;;5.20;99.90;;;;;;5056979;28;20492;-89
2022/04/10 08:11:10;;;;;;;20.75;2.75;;;5.30;99.90;;;;;;5056583;28;20074;-88
2022/04/10 08:13:36;;;;;;;12.10;2.67;;;5.40;99.90;;;;;;5056923;28;20021;-90
2022/04/10 08:16:10;;;;;;;22.85;4.45;;;5.50;99.90;;;;;;5074825;28;20089;-88
2022/04/10 08:18:36;;;;;;;14.70;3.70;;;5.60;99.90;;;;;;5074849;28;20021;-87
2022/04/10 08:21:02;;;;;;;21.73;2.97;;;5.70;99.90;;;;;;5068428;28;20276;-88
2022/04/10 08:23:27;;;;;;;14.40;3.08;;;5.80;99.90;;;;;;5074983;28;20079;-88
2022/04/10 08:25:56;;;;;;;20.70;3.40;;;5.70;99.90;;;;;;5056288;28;20044;-89
2022/04/10 08:28:21;;;;;;;16.02;3.30;;;5.70;99.90;;;;;;5074918;28;20152;-89
2022/04/10 08:30:56;;;;;;;12.48;2.58;;;5.70;99.90;;;;;;5074775;28;20075;-89
2022/04/10 08:33:22;;;;;;;16.17;2.60;;;5.60;99.90;;;;;;5074543;28;20063;-87
2022/04/10 08:36:32;;;;;;;17.67;3.58;;;5.70;99.90;;;;;;5074225;28;20271;-88
2022/04/10 08:38:57;;;;;;;13.32;3.03;;;5.70;99.90;;;;;;5074452;28;20021;-89
2022/04/10 08:41:31;;;;;;;13.45;3.20;;;5.70;99.90;;;;;;5073968;28;20342;-90
2022/04/10 08:44:00;;;;;;;17.85;2.70;;;5.80;99.90;;;;;;5074319;28;20032;-90
2022/04/10 08:46:34;;;;;;;20.00;2.88;;;5.80;99.90;;;;;;5074436;28;20039;-89
2022/04/10 08:49:00;;;;;;;14.48;3.47;;;5.90;99.90;;;;;;5074079;28;20057;-89
2022/04/10 08:51:40;;;;;;;9.07;2.40;;;5.90;99.90;;;;;;5056199;28;20451;-88
2022/04/10 08:54:07;;;;;;;8.05;2.17;;;5.80;99.90;;;;;;5074201;28;20552;-89
2022/04/10 08:56:37;;;;;;;14.32;3.42;;;5.80;99.90;;;;;;5073871;28;20065;-89
2022/04/10 08:59:02;;;;;;;13.50;2.70;;;5.80;99.90;;;;;;5054665;28;20112;-87
2022/04/10 09:01:41;;;;;;;12.55;1.98;;;5.80;99.90;;;;;;5055740;28;20599;-87
2022/04/10 09:04:07;;;;;;;10.13;2.35;;;5.90;99.90;;;;;;5055820;28;20024;-88
2022/04/10 09:06:42;;;;;;;9.02;2.20;;;5.90;99.90;;;;;;5073964;28;20081;-89
2022/04/10 09:09:18;;;;;;;20.30;3.08;;;5.90;99.90;;;;;;5073759;28;20020;-89
2022/04/10 09:11:47;;;;;;;12.70;2.67;;;5.90;99.90;;;;;;5055450;28;20067;-89
2022/04/10 09:14:50;;;;;;;8.70;2.30;;;6.00;99.90;;;;;;5073658;28;20439;-88
2022/04/10 09:17:22;;;;;;;6.70;2.45;;;6.10;99.90;;;;;;4968314;28;20054;-89
2022/04/10 09:19:50;;;;;;;11.00;2.35;;;6.10;99.90;;;;;;5073561;28;20028;-90
2022/04/10 09:22:37;;;;;;;13.80;2.35;;;6.10;99.90;;;;;;5051948;28;20140;-90
2022/04/10 09:25:12;;;;;;;8.35;2.53;;;6.10;99.90;;;;;;5053373;28;20032;-88
2022/04/10 09:27:41;;;;;;;15.27;3.30;;;6.10;99.90;;;;;;5051753;28;20362;-86
2022/04/10 09:30:12;;;;;;;19.63;3.42;;;6.10;99.90;;;;;;5033708;28;20030;-87
2022/04/10 09:32:57;;;;;;;16.65;3.45;;;6.10;99.90;;;;;;5032176;28;20017;-87
2022/04/10 09:35:23;;;;;;;7.45;2.22;;;6.20;99.90;;;;;;5051945;28;20078;-87
2022/04/10 09:37:54;;;;;;;12.07;2.38;;;6.20;99.90;;;;;;5053021;28;20461;-86
2022/04/10 09:40:22;;;;;;;6.95;2.10;;;6.20;99.90;;;;;;5067547;28;20033;-88
2022/04/10 09:43:19;;;;;;;9.48;2.20;;;6.10;99.90;;;;;;5052652;28;20021;-86
2022/04/10 09:45:44;;;;;;;11.73;2.33;;;6.10;99.90;;;;;;5053410;28;20358;-86
2022/04/10 09:52:04;;;;;;;7.45;2.15;;;6.20;99.90;;;;;;5053265;28;20044;-87
2022/04/10 09:54:38;;;;;;;5.53;1.60;;;6.20;99.90;;;;;;5036478;28;20032;-80
2022/04/10 09:57:14;;;;;;;7.80;2.25;;;6.20;99.90;;;;;;5051889;28;20025;-80
2022/04/10 09:59:43;;;;;;;13.48;2.65;;;6.20;99.90;;;;;;5052959;28;20397;-79
2022/04/10 10:02:11;;;;;;;12.65;2.75;;;6.20;99.90;;;;;;5049783;28;20170;-81
2022/04/10 10:04:38;;;;;;;9.20;2.28;;;6.20;99.90;;;;;;5052786;28;20040;-79
2022/04/10 10:07:05;;;;;;;8.65;1.77;;;6.30;99.90;;;;;;5051742;28;20052;-79
2022/04/10 10:09:33;;;;;;;7.40;1.65;;;6.30;99.90;;;;;;5051947;28;20107;-79
2022/04/10 10:12:00;;;;;;;7.70;2.17;;;6.30;99.90;;;;;;5050580;28;20028;-79
2022/04/10 10:14:28;;;;;;;16.13;3.17;;;6.30;99.90;;;;;;5051103;28;20063;-79
2022/04/10 10:16:56;;;;;;;10.55;2.92;;;6.40;99.90;;;;;;5052307;28;20444;-79
2022/04/10 10:19:23;;;;;;;11.25;2.90;;;6.30;99.90;;;;;;5051876;28;20040;-80
2022/04/10 10:21:49;;;;;;;6.15;2.15;;;6.30;99.90;;;;;;5051092;28;20040;-79
2022/04/10 10:24:18;;;;;;;8.10;1.88;;;6.40;99.90;;;;;;5052122;28;20082;-81
2022/04/10 10:26:58;;;;;;;11.48;2.20;;;6.40;99.90;;;;;;5051896;28;20017;-79
2022/04/10 10:29:53;;;;;;;9.73;2.78;;;6.50;99.90;;;;;;5037881;28;20377;-80
2022/04/10 10:32:44;;;;;;;7.53;1.90;;;6.70;99.90;;;;;;5051384;28;20021;-79
2022/04/10 10:35:25;;;;;;;12.02;4.00;;;6.80;99.90;;;;;;5050782;28;20365;-80
2022/04/10 10:37:52;;;;;;;10.45;2.28;;;6.90;99.90;;;;;;5052654;28;20397;-79
2022/04/10 10:40:20;;;;;;;6.40;2.00;;;6.90;99.90;;;;;;5051423;28;20024;-79
2022/04/10 10:42:47;;;;;;;11.20;2.53;;;6.90;99.90;;;;;;5051879;28;20036;-81
2022/04/10 10:45:40;;;;;;;11.00;2.95;;;6.70;99.90;;;;;;5052219;28;20036;-80
2022/04/10 10:48:23;;;;;;;13.63;2.30;;;6.30;99.90;;;;;;5051584;28;20024;-79
2022/04/10 10:50:50;;;;;;;11.50;2.50;;;5.90;99.90;;;;;;5031361;28;20029;-79
2022/04/10 10:53:20;;;;;;;13.32;2.45;;;5.90;99.90;;;;;;5050390;28;20359;-79
2022/04/10 10:55:49;;;;;;;12.77;2.53;;;6.10;99.90;;;;;;5040917;28;20515;-79
2022/04/10 10:58:30;;;;;;;9.60;2.33;;;6.30;99.90;;;;;;5041480;28;20029;-79
2022/04/10 11:01:02;;;;;;;13.05;2.63;;;6.50;99.90;;;;;;5050682;28;20467;-80
2022/04/10 11:03:29;;;;;;;9.30;2.22;;;6.70;99.90;;;;;;5039574;28;20029;-79
2022/04/10 11:06:04;;;;;;;11.32;3.15;;;6.90;99.90;;;;;;5052045;28;20473;-79
2022/04/10 11:08:38;;;;;;;11.10;2.22;;;7.10;99.90;;;;;;5051141;28;20396;-79
2022/04/10 11:11:07;;;;;;;8.30;2.42;;;7.30;99.90;;;;;;5050668;28;20083;-79
2022/04/10 11:13:42;;;;;;;14.00;2.63;;;7.50;99.90;;;;;;5051134;28;20021;-80
2022/04/10 11:16:14;;;;;;;15.32;3.47;;;7.60;99.90;;;;;;5050505;28;20032;-79
2022/04/10 11:18:41;;;;;;;7.55;2.00;;;7.70;99.90;;;;;;5050586;28;20033;-79
2022/04/10 11:21:18;;;;;;;8.73;2.53;;;7.70;99.90;;;;;;5051735;28;20369;-79
2022/04/10 11:23:46;;;;;;;8.52;1.75;;;7.50;99.90;;;;;;5054874;28;20083;-79
2022/04/10 11:26:16;;;;;;;5.47;1.73;;;7.50;99.90;;;;;;5075275;28;20074;-80
2022/04/10 11:29:00;;;;;;;10.20;2.25;;;7.60;99.90;;;;;;5074967;28;20387;-80
2022/04/10 11:31:37;;;;;;;8.48;1.90;;;7.60;99.90;;;;;;5075431;28;20399;-79
2022/04/10 11:34:20;;;;;;;6.55;1.80;;;7.50;99.90;;;;;;5075248;28;20535;-79
2022/04/10 11:36:49;;;;;;;10.60;2.17;;;7.30;99.90;;;;;;5075872;28;20016;-78
2022/04/10 11:39:16;;;;;;;11.80;2.00;;;6.90;99.90;;;;;;5075808;28;20016;-78
2022/04/10 11:41:42;;;;;;;12.50;2.50;;;6.70;99.90;;;;;;5057173;28;20115;-79
2022/04/10 11:44:09;;;;;;;10.27;2.60;;;6.60;99.90;;;;;;5075676;28;20025;-79
2022/04/10 11:46:35;;;;;;;10.73;2.15;;;6.70;99.90;;;;;;5057672;28;20052;-79
2022/04/10 11:49:05;;;;;;;8.50;2.28;;;7.10;99.90;;;;;;5075192;28;20032;-80
2022/04/10 11:51:30;;;;;;;7.68;1.83;;;7.40;99.90;;;;;;5064746;28;20396;-79
2022/04/10 11:53:58;;;;;;;8.85;2.47;;;7.60;99.90;;;;;;5074902;28;20032;-79
2022/04/10 11:56:24;;;;;;;6.60;1.95;;;7.80;99.90;;;;;;5074640;28;20020;-79
2022/04/10 11:58:50;;;;;;;5.43;2.00;;;8.00;99.90;;;;;;5073538;28;20099;-79
2022/04/10 12:01:17;;;;;;;12.30;2.55;;;8.20;99.90;;;;;;5075133;28;20050;-80
2022/04/10 12:03:46;;;;;;;7.03;1.90;;;8.30;99.90;;;;;;5074146;28;20116;-80
2022/04/10 12:06:19;;;;;;;5.60;1.77;;;8.40;99.90;;;;;;5074606;28;20032;-80
2022/04/10 12:08:46;;;;;;;8.23;1.98;;;8.30;99.90;;;;;;5072289;28;20529;-80
2022/04/10 12:11:12;;;;;;;5.15;1.85;;;8.50;99.90;;;;;;5067873;28;20056;-80
2022/04/10 12:13:38;;;;;;;9.02;1.95;;;8.70;99.90;;;;;;5074964;28;20067;-82
2022/04/10 12:16:18;;;;;;;5.63;2.70;;;8.90;99.90;;;;;;5056579;28;20033;-81
2022/04/10 12:18:48;;;;;;;8.95;1.95;;;8.80;99.90;;;;;;5054416;28;20690;-81
2022/04/10 12:21:14;;;;;;;4.72;1.60;;;8.70;99.90;;;;;;5074912;28;20029;-81
2022/04/10 12:23:40;;;;;;;5.18;1.58;;;8.40;99.90;;;;;;5056850;28;20025;-82
2022/04/10 12:26:07;;;;;;;8.77;2.42;;;8.20;99.90;;;;;;5074351;28;20033;-81
2022/04/10 12:28:33;;;;;;;5.78;1.60;;;8.40;99.90;;;;;;5074149;28;20035;-81
2022/04/10 12:31:03;;;;;;;5.90;1.25;;;8.40;99.90;;;;;;5073855;28;20032;-81
2022/04/10 12:33:30;;;;;;;8.10;1.75;;;8.60;99.90;;;;;;5073129;28;20044;-79
2022/04/10 12:35:55;;;;;;;4.28;1.63;;;8.70;99.90;;;;;;5073054;28;20024;-80
2022/04/10 12:38:26;;;;;;;6.55;1.85;;;8.80;99.90;;;;;;5072623;28;20024;-81
2022/04/10 12:41:03;;;;;;;5.28;1.77;;;8.70;99.90;;;;;;5072210;28;20029;-80
2022/04/10 12:43:29;;;;;;;6.03;1.52;;;8.60;99.90;;;;;;5072953;28;20025;-80
2022/04/10 12:46:08;;;;;;;6.85;1.83;;;8.40;99.90;;;;;;5073571;28;20032;-80
2022/04/10 12:48:34;;;;;;;7.68;1.50;;;8.40;99.90;;;;;;5061765;28;20024;-79
2022/04/10 12:51:09;;;;;;;6.22;1.40;;;8.20;99.90;;;;;;5071831;28;20027;-80
2022/04/10 12:53:35;;;;;;;4.13;1.65;;;8.20;99.90;;;;;;5073697;28;20020;-80
2022/04/10 12:56:02;;;;;;;4.32;1.30;;;8.20;99.90;;;;;;5072673;28;20028;-79
2022/04/10 12:58:29;;;;;;;7.22;1.67;;;8.20;99.90;;;;;;5073763;28;20099;-80
2022/04/10 13:00:55;;;;;;;4.93;1.98;;;8.00;99.90;;;;;;5073585;28;20480;-79
2022/04/10 13:03:25;;;;;;;7.18;1.55;;;7.90;99.90;;;;;;5073550;28;20082;-79
2022/04/10 13:06:04;;;;;;;5.15;1.42;;;7.80;99.90;;;;;;5055372;28;20035;-80
2022/04/10 13:08:34;;;;;;;7.97;3.22;;;7.80;99.90;;;;;;5055928;28;20028;-79
2022/04/10 13:11:01;;;;;;;3.60;1.75;;;7.90;99.90;;;;;;5072649;28;20032;-79
2022/04/10 13:13:26;;;;;;;5.05;1.83;;;7.90;99.90;;;;;;5073034;28;20392;-80